Gunder, Iowa
Current Conditions -  °F | °C
As of 3:15 PM on Friday 24 Oct 2014 (Local Time) from KPDC Reporting Station
Overcast Overcast  
Wind Chill: 64°   Ceiling: 3000
Heat Index: 64°   Visibility: 10mi
Dew Point: 54°   Wind: 7mph
Humidity: 70%   Direction: 210°SSW
Pressure: 29.89"   Gusts: NA
Location:  42.9942°N, 91.5477°W
Report Text: KPDC 242015Z AUTO 21006KT 10SM OVC030 18/12 A2989 RMK AO2 T01750120
Loading
Personal Weather Stations






























Interactive Weather Map New forecast layout! Learn more

10-Day Weather Forecast

Advertisements
Track Severe Weather on mobile